Aeroporto :
LOGIN :

Iscrizione | Disclaimer

   EN    FR    IT 

 










Sommario :    VFR   VFR Marginale   IFR   IFR Intensivo   IFR Molto Intensivo
Visibilità : 
Base nubi : 
>= 8 km
>= 3000ft
5 / 8 km
1000 / 3000 ft
1500m / 5 km
500 / 1000 ft
800 / 1500m
200 / 500 ft
< 800m
< 200 ft
Simboli :   Temporali  Nebbia  Neve Forte  Precipitazioni Forti  Vento > 20 kt
SIGMETs :   Varie  Temporali  Ghiacco  Turbolenza  Onda orograficha  Ceneri Vulcaniche







- Altitudine del aeroporto : 1470 ft
- Codice IATA : KLU


LOWK - Klagenfurt

ULTIMO METAR :
  • 220720Z 34003KT CAVOK 02/M02 Q1034 NOSIG

METARs OBSOLETI :
  • 220650Z 33003KT CAVOK 00/M02 Q1034 NOSIG
  • 220620Z 30002KT CAVOK M01/M03 Q1034 NOSIG
  • 220550Z VRB02KT CAVOK M02/M03 Q1034 NOSIG
  • 220520Z AUTO 32004KT 9999 NSC M02/M04 Q1034 NOSIG
  • 220450Z AUTO 30003KT 9999 NSC M02/M04 Q1034 NOSIG

TAF TAF LOWK
Valido dal 22 a 06 ore il 23 a 06 ore UTC


220515Z 2206/2306 10005KT CAVOK TX16/2215Z TNM01/2206Z
Nessun NOTAM noto per questo aeroporto.



MetMap, La meteo Aeronautica in un colpo d'occhio ! - Copyright ORBIFLY Dicembre 2007 - Disclaimer

ORBIFLY MET'MAP TEAM :

Programmazione e sviluppo : Alexandra Zaïnal
Concezione e sviluppo : Baudouin d'Aumeries
Co-Programmazione e sviluppo : Marc-Olivier Méhu
Supporto tecnico e logistico : Manuel Goepfert
Aiuto per la traduzione : Arnaldo La Scala

Contatto : metmap@orbifly.com




FONTI E CREDITI :

   NOAA